sensor_id;sensor_type;location;lat;lon;timestamp;P1;durP1;ratioP1;P2;durP2;ratioP2
45887;SDS011;31595;51.418;7.572;2023-07-13T00:01:03;4.57;;;1.65;;
45887;SDS011;31595;51.418;7.572;2023-07-13T00:03:33;3.65;;;1.45;;
45887;SDS011;31595;51.418;7.572;2023-07-13T00:06:00;4.72;;;1.70;;
45887;SDS011;31595;51.418;7.572;2023-07-13T00:10:55;4.60;;;1.75;;
45887;SDS011;31595;51.418;7.572;2023-07-13T00:13:22;4.60;;;1.50;;
45887;SDS011;31595;51.418;7.572;2023-07-13T00:15:49;7.93;;;1.75;;
45887;SDS011;31595;51.418;7.572;2023-07-13T00:18:16;5.18;;;1.67;;
45887;SDS011;31595;51.418;7.572;2023-07-13T00:20:44;4.57;;;1.73;;
45887;SDS011;31595;51.418;7.572;2023-07-13T00:23:11;4.72;;;1.80;;
45887;SDS011;31595;51.418;7.572;2023-07-13T00:25:37;6.15;;;1.92;;
45887;SDS011;31595;51.418;7.572;2023-07-13T00:28:04;4.55;;;1.83;;
45887;SDS011;31595;51.418;7.572;2023-07-13T00:30:31;5.10;;;1.90;;
45887;SDS011;31595;51.418;7.572;2023-07-13T00:32:58;5.22;;;1.70;;
45887;SDS011;31595;51.418;7.572;2023-07-13T00:35:27;4.00;;;1.67;;
45887;SDS011;31595;51.418;7.572;2023-07-13T00:37:57;4.80;;;1.55;;
45887;SDS011;31595;51.418;7.572;2023-07-13T00:40:24;3.28;;;1.65;;
45887;SDS011;31595;51.418;7.572;2023-07-13T00:42:51;4.85;;;1.90;;
45887;SDS011;31595;51.418;7.572;2023-07-13T00:48:03;6.25;;;1.63;;
45887;SDS011;31595;51.418;7.572;2023-07-13T00:50:30;4.13;;;1.63;;
45887;SDS011;31595;51.418;7.572;2023-07-13T00:52:58;3.50;;;1.42;;
45887;SDS011;31595;51.418;7.572;2023-07-13T00:55:25;5.13;;;1.48;;
45887;SDS011;31595;51.418;7.572;2023-07-13T00:57:53;3.92;;;1.40;;
45887;SDS011;31595;51.418;7.572;2023-07-13T01:00:20;3.78;;;1.80;;
45887;SDS011;31595;51.418;7.572;2023-07-13T01:02:48;4.18;;;1.70;;
45887;SDS011;31595;51.418;7.572;2023-07-13T01:05:17;5.43;;;1.83;;
45887;SDS011;31595;51.418;7.572;2023-07-13T01:07:44;4.15;;;1.50;;
45887;SDS011;31595;51.418;7.572;2023-07-13T01:10:12;4.40;;;1.75;;
45887;SDS011;31595;51.418;7.572;2023-07-13T01:12:39;5.87;;;1.77;;
45887;SDS011;31595;51.418;7.572;2023-07-13T01:17:48;5.18;;;1.80;;
45887;SDS011;31595;51.418;7.572;2023-07-13T01:20:15;3.97;;;1.73;;
45887;SDS011;31595;51.418;7.572;2023-07-13T01:22:44;4.35;;;1.35;;
45887;SDS011;31595;51.418;7.572;2023-07-13T01:25:11;5.45;;;1.50;;
45887;SDS011;31595;51.418;7.572;2023-07-13T01:27:38;7.72;;;2.08;;
45887;SDS011;31595;51.418;7.572;2023-07-13T01:30:07;3.92;;;1.70;;
45887;SDS011;31595;51.418;7.572;2023-07-13T01:32:34;6.30;;;1.80;;
45887;SDS011;31595;51.418;7.572;2023-07-13T01:35:02;4.72;;;1.67;;
45887;SDS011;31595;51.418;7.572;2023-07-13T01:37:29;6.20;;;2.00;;
45887;SDS011;31595;51.418;7.572;2023-07-13T01:40:03;4.80;;;2.03;;
45887;SDS011;31595;51.418;7.572;2023-07-13T01:42:30;5.80;;;1.92;;
45887;SDS011;31595;51.418;7.572;2023-07-13T01:44:57;6.72;;;1.90;;
45887;SDS011;31595;51.418;7.572;2023-07-13T01:47:23;4.45;;;1.60;;
45887;SDS011;31595;51.418;7.572;2023-07-13T01:49:51;5.90;;;1.85;;
45887;SDS011;31595;51.418;7.572;2023-07-13T01:52:18;5.82;;;1.63;;
45887;SDS011;31595;51.418;7.572;2023-07-13T01:54:45;4.78;;;1.63;;
45887;SDS011;31595;51.418;7.572;2023-07-13T01:57:13;4.35;;;1.95;;
45887;SDS011;31595;51.418;7.572;2023-07-13T01:59:40;4.90;;;1.80;;
45887;SDS011;31595;51.418;7.572;2023-07-13T02:02:06;3.42;;;1.50;;
45887;SDS011;31595;51.418;7.572;2023-07-13T02:04:33;5.03;;;1.60;;
45887;SDS011;31595;51.418;7.572;2023-07-13T02:07:00;4.57;;;1.67;;
45887;SDS011;31595;51.418;7.572;2023-07-13T02:09:27;6.50;;;1.88;;
45887;SDS011;31595;51.418;7.572;2023-07-13T02:11:54;4.03;;;1.65;;
45887;SDS011;31595;51.418;7.572;2023-07-13T02:14:22;5.55;;;1.63;;
45887;SDS011;31595;51.418;7.572;2023-07-13T02:16:49;3.15;;;1.50;;
45887;SDS011;31595;51.418;7.572;2023-07-13T02:19:16;5.72;;;1.63;;
45887;SDS011;31595;51.418;7.572;2023-07-13T02:21:42;5.03;;;1.85;;
45887;SDS011;31595;51.418;7.572;2023-07-13T02:24:09;3.70;;;1.50;;
45887;SDS011;31595;51.418;7.572;2023-07-13T02:26:42;4.75;;;1.33;;
45887;SDS011;31595;51.418;7.572;2023-07-13T02:29:09;3.78;;;1.80;;
45887;SDS011;31595;51.418;7.572;2023-07-13T02:31:38;5.28;;;1.63;;
45887;SDS011;31595;51.418;7.572;2023-07-13T02:34:04;5.82;;;1.50;;
45887;SDS011;31595;51.418;7.572;2023-07-13T02:36:31;5.70;;;1.92;;
45887;SDS011;31595;51.418;7.572;2023-07-13T02:38:59;5.10;;;1.85;;
45887;SDS011;31595;51.418;7.572;2023-07-13T02:41:27;3.40;;;1.50;;
45887;SDS011;31595;51.418;7.572;2023-07-13T02:43:54;5.82;;;1.73;;
45887;SDS011;31595;51.418;7.572;2023-07-13T02:46:28;4.32;;;1.63;;
45887;SDS011;31595;51.418;7.572;2023-07-13T02:48:56;5.03;;;1.80;;
45887;SDS011;31595;51.418;7.572;2023-07-13T02:51:23;4.53;;;1.50;;
45887;SDS011;31595;51.418;7.572;2023-07-13T02:53:49;4.00;;;1.65;;
45887;SDS011;31595;51.418;7.572;2023-07-13T02:56:16;3.53;;;1.50;;
45887;SDS011;31595;51.418;7.572;2023-07-13T02:58:43;6.85;;;2.10;;
45887;SDS011;31595;51.418;7.572;2023-07-13T03:01:10;6.13;;;2.20;;
45887;SDS011;31595;51.418;7.572;2023-07-13T03:03:37;4.28;;;1.70;;
45887;SDS011;31595;51.418;7.572;2023-07-13T03:06:05;5.68;;;1.88;;
45887;SDS011;31595;51.418;7.572;2023-07-13T03:08:33;4.93;;;1.85;;
45887;SDS011;31595;51.418;7.572;2023-07-13T03:11:00;6.75;;;1.65;;
45887;SDS011;31595;51.418;7.572;2023-07-13T03:13:27;7.45;;;2.17;;
45887;SDS011;31595;51.418;7.572;2023-07-13T03:15:54;4.88;;;1.90;;
45887;SDS011;31595;51.418;7.572;2023-07-13T03:18:21;6.65;;;1.60;;
45887;SDS011;31595;51.418;7.572;2023-07-13T03:20:49;8.15;;;2.03;;
45887;SDS011;31595;51.418;7.572;2023-07-13T03:23:18;7.47;;;2.53;;
45887;SDS011;31595;51.418;7.572;2023-07-13T03:25:45;2.78;;;1.63;;
45887;SDS011;31595;51.418;7.572;2023-07-13T03:28:12;4.53;;;1.80;;
45887;SDS011;31595;51.418;7.572;2023-07-13T03:30:38;4.07;;;1.77;;
45887;SDS011;31595;51.418;7.572;2023-07-13T03:33:05;4.20;;;1.50;;
45887;SDS011;31595;51.418;7.572;2023-07-13T03:35:33;3.85;;;1.50;;
45887;SDS011;31595;51.418;7.572;2023-07-13T03:38:00;4.40;;;2.17;;
45887;SDS011;31595;51.418;7.572;2023-07-13T03:40:28;4.05;;;1.52;;
45887;SDS011;31595;51.418;7.572;2023-07-13T03:42:55;4.38;;;1.80;;
45887;SDS011;31595;51.418;7.572;2023-07-13T03:45:22;3.97;;;1.95;;
45887;SDS011;31595;51.418;7.572;2023-07-13T03:47:48;4.05;;;1.60;;
45887;SDS011;31595;51.418;7.572;2023-07-13T03:50:15;4.75;;;1.63;;
45887;SDS011;31595;51.418;7.572;2023-07-13T03:52:42;3.85;;;1.77;;
45887;SDS011;31595;51.418;7.572;2023-07-13T03:55:09;5.93;;;2.13;;
45887;SDS011;31595;51.418;7.572;2023-07-13T03:57:37;3.55;;;1.58;;
45887;SDS011;31595;51.418;7.572;2023-07-13T04:00:07;3.55;;;1.80;;
45887;SDS011;31595;51.418;7.572;2023-07-13T04:02:34;4.28;;;1.92;;
45887;SDS011;31595;51.418;7.572;2023-07-13T04:05:03;7.68;;;1.83;;
45887;SDS011;31595;51.418;7.572;2023-07-13T04:07:29;5.22;;;1.63;;
45887;SDS011;31595;51.418;7.572;2023-07-13T04:09:56;6.40;;;1.90;;
45887;SDS011;31595;51.418;7.572;2023-07-13T04:12:23;7.20;;;1.90;;
45887;SDS011;31595;51.418;7.572;2023-07-13T04:14:51;6.00;;;1.70;;
45887;SDS011;31595;51.418;7.572;2023-07-13T04:17:19;4.05;;;1.58;;
45887;SDS011;31595;51.418;7.572;2023-07-13T04:19:46;3.53;;;1.83;;
45887;SDS011;31595;51.418;7.572;2023-07-13T04:22:14;6.15;;;1.67;;
45887;SDS011;31595;51.418;7.572;2023-07-13T04:24:41;4.07;;;1.73;;
45887;SDS011;31595;51.418;7.572;2023-07-13T04:27:08;8.02;;;2.22;;
45887;SDS011;31595;51.418;7.572;2023-07-13T04:29:34;3.45;;;1.70;;
45887;SDS011;31595;51.418;7.572;2023-07-13T04:32:03;5.93;;;1.83;;
45887;SDS011;31595;51.418;7.572;2023-07-13T04:34:30;4.63;;;1.50;;
45887;SDS011;31595;51.418;7.572;2023-07-13T04:36:57;5.13;;;1.70;;
45887;SDS011;31595;51.418;7.572;2023-07-13T04:39:24;6.22;;;2.10;;
45887;SDS011;31595;51.418;7.572;2023-07-13T04:41:50;12.77;;;2.15;;
45887;SDS011;31595;51.418;7.572;2023-07-13T04:44:17;5.70;;;1.90;;
45887;SDS011;31595;51.418;7.572;2023-07-13T04:46:44;3.67;;;1.90;;
45887;SDS011;31595;51.418;7.572;2023-07-13T04:49:12;5.72;;;2.17;;
45887;SDS011;31595;51.418;7.572;2023-07-13T04:51:39;5.28;;;1.83;;
45887;SDS011;31595;51.418;7.572;2023-07-13T04:54:06;7.22;;;2.30;;
45887;SDS011;31595;51.418;7.572;2023-07-13T04:56:33;6.55;;;2.13;;
45887;SDS011;31595;51.418;7.572;2023-07-13T04:59:00;5.97;;;1.80;;
45887;SDS011;31595;51.418;7.572;2023-07-13T05:01:27;3.72;;;1.92;;
45887;SDS011;31595;51.418;7.572;2023-07-13T05:03:54;5.45;;;1.80;;
45887;SDS011;31595;51.418;7.572;2023-07-13T05:06:25;6.05;;;1.83;;
45887;SDS011;31595;51.418;7.572;2023-07-13T05:08:56;7.68;;;1.80;;
45887;SDS011;31595;51.418;7.572;2023-07-13T05:11:22;6.03;;;1.90;;
45887;SDS011;31595;51.418;7.572;2023-07-13T05:13:49;3.97;;;1.90;;
45887;SDS011;31595;51.418;7.572;2023-07-13T05:16:16;6.40;;;1.90;;
45887;SDS011;31595;51.418;7.572;2023-07-13T05:18:43;4.97;;;1.73;;
45887;SDS011;31595;51.418;7.572;2023-07-13T05:21:10;4.03;;;1.80;;
45887;SDS011;31595;51.418;7.572;2023-07-13T05:23:38;4.47;;;1.90;;
45887;SDS011;31595;51.418;7.572;2023-07-13T05:26:07;5.15;;;1.77;;
45887;SDS011;31595;51.418;7.572;2023-07-13T05:28:34;3.95;;;1.80;;
45887;SDS011;31595;51.418;7.572;2023-07-13T05:31:00;7.18;;;1.90;;
45887;SDS011;31595;51.418;7.572;2023-07-13T05:33:27;7.07;;;2.13;;
45887;SDS011;31595;51.418;7.572;2023-07-13T05:35:54;5.25;;;1.83;;
45887;SDS011;31595;51.418;7.572;2023-07-13T05:38:21;4.60;;;1.55;;
45887;SDS011;31595;51.418;7.572;2023-07-13T05:40:49;4.30;;;1.90;;
45887;SDS011;31595;51.418;7.572;2023-07-13T05:43:16;4.97;;;1.92;;
45887;SDS011;31595;51.418;7.572;2023-07-13T05:45:43;5.53;;;1.92;;
45887;SDS011;31595;51.418;7.572;2023-07-13T05:48:10;5.65;;;2.00;;
45887;SDS011;31595;51.418;7.572;2023-07-13T05:50:36;4.55;;;1.77;;
45887;SDS011;31595;51.418;7.572;2023-07-13T05:53:04;4.43;;;1.90;;
45887;SDS011;31595;51.418;7.572;2023-07-13T05:55:30;8.55;;;2.50;;
45887;SDS011;31595;51.418;7.572;2023-07-13T05:57:59;5.05;;;2.25;;
45887;SDS011;31595;51.418;7.572;2023-07-13T06:00:26;5.90;;;2.08;;
45887;SDS011;31595;51.418;7.572;2023-07-13T06:02:53;4.72;;;2.70;;
45887;SDS011;31595;51.418;7.572;2023-07-13T06:05:20;6.25;;;2.30;;
45887;SDS011;31595;51.418;7.572;2023-07-13T06:07:46;6.93;;;2.47;;
45887;SDS011;31595;51.418;7.572;2023-07-13T06:10:13;6.75;;;2.60;;
45887;SDS011;31595;51.418;7.572;2023-07-13T06:12:40;7.03;;;2.30;;
45887;SDS011;31595;51.418;7.572;2023-07-13T06:15:09;5.57;;;2.55;;
45887;SDS011;31595;51.418;7.572;2023-07-13T06:17:36;6.55;;;2.85;;
45887;SDS011;31595;51.418;7.572;2023-07-13T06:20:02;6.82;;;2.20;;
45887;SDS011;31595;51.418;7.572;2023-07-13T06:22:29;8.40;;;3.20;;
45887;SDS011;31595;51.418;7.572;2023-07-13T06:24:56;4.88;;;2.15;;
45887;SDS011;31595;51.418;7.572;2023-07-13T06:27:23;6.03;;;2.10;;
45887;SDS011;31595;51.418;7.572;2023-07-13T06:29:50;6.97;;;2.70;;
45887;SDS011;31595;51.418;7.572;2023-07-13T06:32:18;8.55;;;2.88;;
45887;SDS011;31595;51.418;7.572;2023-07-13T06:34:45;4.68;;;2.25;;
45887;SDS011;31595;51.418;7.572;2023-07-13T06:37:11;6.38;;;2.58;;
45887;SDS011;31595;51.418;7.572;2023-07-13T06:39:38;5.82;;;2.55;;
45887;SDS011;31595;51.418;7.572;2023-07-13T06:42:05;6.60;;;2.25;;
45887;SDS011;31595;51.418;7.572;2023-07-13T06:44:32;5.95;;;2.25;;
45887;SDS011;31595;51.418;7.572;2023-07-13T06:46:59;10.50;;;2.25;;
45887;SDS011;31595;51.418;7.572;2023-07-13T06:49:27;8.20;;;3.05;;
45887;SDS011;31595;51.418;7.572;2023-07-13T06:51:54;5.50;;;2.40;;
45887;SDS011;31595;51.418;7.572;2023-07-13T06:54:21;7.82;;;2.40;;
45887;SDS011;31595;51.418;7.572;2023-07-13T06:56:48;5.80;;;2.20;;
45887;SDS011;31595;51.418;7.572;2023-07-13T06:59:14;8.18;;;2.42;;
45887;SDS011;31595;51.418;7.572;2023-07-13T07:01:41;7.97;;;2.40;;
45887;SDS011;31595;51.418;7.572;2023-07-13T07:04:08;8.13;;;2.88;;
45887;SDS011;31595;51.418;7.572;2023-07-13T07:06:36;4.85;;;2.25;;
45887;SDS011;31595;51.418;7.572;2023-07-13T07:09:03;9.55;;;2.80;;
45887;SDS011;31595;51.418;7.572;2023-07-13T07:11:30;8.00;;;2.67;;
45887;SDS011;31595;51.418;7.572;2023-07-13T07:13:57;10.80;;;2.78;;
45887;SDS011;31595;51.418;7.572;2023-07-13T07:16:24;6.30;;;2.75;;
45887;SDS011;31595;51.418;7.572;2023-07-13T07:18:51;6.53;;;2.95;;
45887;SDS011;31595;51.418;7.572;2023-07-13T07:21:17;8.95;;;2.58;;
45887;SDS011;31595;51.418;7.572;2023-07-13T07:23:46;6.25;;;2.67;;
45887;SDS011;31595;51.418;7.572;2023-07-13T07:26:12;5.47;;;2.35;;
45887;SDS011;31595;51.418;7.572;2023-07-13T07:28:39;5.10;;;2.00;;
45887;SDS011;31595;51.418;7.572;2023-07-13T07:31:06;6.65;;;2.58;;
45887;SDS011;31595;51.418;7.572;2023-07-13T07:33:33;6.47;;;2.47;;
45887;SDS011;31595;51.418;7.572;2023-07-13T07:36:00;6.82;;;2.05;;
45887;SDS011;31595;51.418;7.572;2023-07-13T07:38:27;7.45;;;2.53;;
45887;SDS011;31595;51.418;7.572;2023-07-13T07:40:55;6.13;;;2.20;;
45887;SDS011;31595;51.418;7.572;2023-07-13T07:43:22;4.55;;;2.35;;
45887;SDS011;31595;51.418;7.572;2023-07-13T07:45:49;5.38;;;2.30;;
45887;SDS011;31595;51.418;7.572;2023-07-13T07:48:16;7.10;;;2.33;;
45887;SDS011;31595;51.418;7.572;2023-07-13T07:50:43;5.68;;;2.08;;
45887;SDS011;31595;51.418;7.572;2023-07-13T07:53:10;6.72;;;2.25;;
45887;SDS011;31595;51.418;7.572;2023-07-13T07:55:38;7.40;;;2.42;;
45887;SDS011;31595;51.418;7.572;2023-07-13T07:58:06;5.35;;;2.15;;
45887;SDS011;31595;51.418;7.572;2023-07-13T08:00:33;7.10;;;2.38;;
45887;SDS011;31595;51.418;7.572;2023-07-13T08:03:01;7.13;;;2.13;;
45887;SDS011;31595;51.418;7.572;2023-07-13T08:05:27;4.50;;;1.88;;
45887;SDS011;31595;51.418;7.572;2023-07-13T08:07:54;6.28;;;2.13;;
45887;SDS011;31595;51.418;7.572;2023-07-13T08:10:21;5.68;;;2.42;;
45887;SDS011;31595;51.418;7.572;2023-07-13T08:12:48;4.50;;;2.30;;
45887;SDS011;31595;51.418;7.572;2023-07-13T08:15:16;4.75;;;2.20;;
45887;SDS011;31595;51.418;7.572;2023-07-13T08:17:46;6.15;;;2.40;;
45887;SDS011;31595;51.418;7.572;2023-07-13T08:20:13;5.93;;;2.38;;
45887;SDS011;31595;51.418;7.572;2023-07-13T08:22:39;6.18;;;2.15;;
45887;SDS011;31595;51.418;7.572;2023-07-13T08:25:06;5.50;;;1.88;;
45887;SDS011;31595;51.418;7.572;2023-07-13T08:27:33;3.95;;;1.95;;
45887;SDS011;31595;51.418;7.572;2023-07-13T08:30:00;5.80;;;2.05;;
45887;SDS011;31595;51.418;7.572;2023-07-13T08:32:28;5.63;;;2.45;;
45887;SDS011;31595;51.418;7.572;2023-07-13T08:34:55;7.50;;;2.40;;
45887;SDS011;31595;51.418;7.572;2023-07-13T08:37:22;4.40;;;1.75;;
45887;SDS011;31595;51.418;7.572;2023-07-13T08:39:49;5.43;;;2.10;;
45887;SDS011;31595;51.418;7.572;2023-07-13T08:42:31;5.70;;;2.33;;
45887;SDS011;31595;51.418;7.572;2023-07-13T08:45:00;4.68;;;1.92;;
45887;SDS011;31595;51.418;7.572;2023-07-13T08:47:32;6.30;;;2.17;;
45887;SDS011;31595;51.418;7.572;2023-07-13T08:50:00;6.25;;;2.38;;
45887;SDS011;31595;51.418;7.572;2023-07-13T08:52:29;4.50;;;2.10;;
45887;SDS011;31595;51.418;7.572;2023-07-13T08:54:57;6.53;;;1.92;;
45887;SDS011;31595;51.418;7.572;2023-07-13T08:57:26;6.10;;;1.65;;
45887;SDS011;31595;51.418;7.572;2023-07-13T08:59:55;5.38;;;2.20;;
45887;SDS011;31595;51.418;7.572;2023-07-13T09:02:25;5.03;;;1.90;;
45887;SDS011;31595;51.418;7.572;2023-07-13T09:04:54;4.10;;;1.75;;
45887;SDS011;31595;51.418;7.572;2023-07-13T09:07:26;6.00;;;2.42;;
45887;SDS011;31595;51.418;7.572;2023-07-13T09:09:59;6.47;;;2.15;;
45887;SDS011;31595;51.418;7.572;2023-07-13T09:12:31;5.72;;;1.92;;
45887;SDS011;31595;51.418;7.572;2023-07-13T09:15:02;3.95;;;1.90;;
45887;SDS011;31595;51.418;7.572;2023-07-13T09:17:31;3.83;;;1.60;;
45887;SDS011;31595;51.418;7.572;2023-07-13T09:20:02;4.28;;;2.00;;
45887;SDS011;31595;51.418;7.572;2023-07-13T09:22:31;5.35;;;2.15;;
45887;SDS011;31595;51.418;7.572;2023-07-13T09:27:29;8.40;;;2.13;;
45887;SDS011;31595;51.418;7.572;2023-07-13T09:29:58;5.57;;;2.30;;
45887;SDS011;31595;51.418;7.572;2023-07-13T09:32:28;4.60;;;2.17;;
45887;SDS011;31595;51.418;7.572;2023-07-13T09:34:55;5.78;;;1.90;;
45887;SDS011;31595;51.418;7.572;2023-07-13T09:37:27;6.00;;;2.40;;
45887;SDS011;31595;51.418;7.572;2023-07-13T09:39:54;4.75;;;2.20;;
45887;SDS011;31595;51.418;7.572;2023-07-13T09:42:27;4.10;;;2.17;;
45887;SDS011;31595;51.418;7.572;2023-07-13T09:44:56;6.43;;;2.50;;
45887;SDS011;31595;51.418;7.572;2023-07-13T09:47:24;5.72;;;2.78;;
45887;SDS011;31595;51.418;7.572;2023-07-13T09:49:55;4.47;;;1.90;;
45887;SDS011;31595;51.418;7.572;2023-07-13T09:54:51;3.97;;;1.90;;
45887;SDS011;31595;51.418;7.572;2023-07-13T09:57:22;5.93;;;2.15;;
45887;SDS011;31595;51.418;7.572;2023-07-13T09:59:51;4.10;;;1.90;;
45887;SDS011;31595;51.418;7.572;2023-07-13T10:02:26;4.20;;;1.80;;
45887;SDS011;31595;51.418;7.572;2023-07-13T10:04:59;4.35;;;1.90;;
45887;SDS011;31595;51.418;7.572;2023-07-13T10:07:26;4.25;;;1.92;;
45887;SDS011;31595;51.418;7.572;2023-07-13T10:09:54;3.67;;;1.70;;
45887;SDS011;31595;51.418;7.572;2023-07-13T10:14:50;3.47;;;1.70;;
45887;SDS011;31595;51.418;7.572;2023-07-13T10:17:24;4.38;;;1.85;;
45887;SDS011;31595;51.418;7.572;2023-07-13T10:19:56;4.10;;;1.80;;
45887;SDS011;31595;51.418;7.572;2023-07-13T10:22:26;4.97;;;1.73;;
45887;SDS011;31595;51.418;7.572;2023-07-13T10:24:55;3.83;;;1.70;;
45887;SDS011;31595;51.418;7.572;2023-07-13T10:27:23;4.93;;;1.70;;
45887;SDS011;31595;51.418;7.572;2023-07-13T10:29:55;3.97;;;1.95;;
45887;SDS011;31595;51.418;7.572;2023-07-13T10:32:25;6.30;;;1.92;;
45887;SDS011;31595;51.418;7.572;2023-07-13T10:34:52;3.08;;;1.50;;
45887;SDS011;31595;51.418;7.572;2023-07-13T10:37:24;5.50;;;2.03;;
45887;SDS011;31595;51.418;7.572;2023-07-13T10:39:55;3.95;;;1.88;;
45887;SDS011;31595;51.418;7.572;2023-07-13T10:42:26;4.47;;;1.83;;
45887;SDS011;31595;51.418;7.572;2023-07-13T10:44:53;5.55;;;1.98;;
45887;SDS011;31595;51.418;7.572;2023-07-13T10:47:21;4.55;;;1.70;;
45887;SDS011;31595;51.418;7.572;2023-07-13T10:49:48;5.05;;;2.10;;
45887;SDS011;31595;51.418;7.572;2023-07-13T10:55:09;4.10;;;1.75;;
45887;SDS011;31595;51.418;7.572;2023-07-13T10:57:59;3.60;;;1.63;;
45887;SDS011;31595;51.418;7.572;2023-07-13T11:00:26;3.83;;;1.60;;
45887;SDS011;31595;51.418;7.572;2023-07-13T11:02:56;4.78;;;1.70;;
45887;SDS011;31595;51.418;7.572;2023-07-13T11:05:26;3.58;;;1.48;;
45887;SDS011;31595;51.418;7.572;2023-07-13T11:08:02;6.47;;;1.70;;
45887;SDS011;31595;51.418;7.572;2023-07-13T11:10:50;4.03;;;1.60;;
45887;SDS011;31595;51.418;7.572;2023-07-13T11:13:37;5.15;;;2.00;;
45887;SDS011;31595;51.418;7.572;2023-07-13T11:16:11;4.38;;;1.85;;
45887;SDS011;31595;51.418;7.572;2023-07-13T11:18:38;5.35;;;1.67;;
45887;SDS011;31595;51.418;7.572;2023-07-13T11:21:14;4.43;;;1.83;;
45887;SDS011;31595;51.418;7.572;2023-07-13T11:23:42;4.55;;;1.63;;
45887;SDS011;31595;51.418;7.572;2023-07-13T11:28:53;3.70;;;1.80;;
45887;SDS011;31595;51.418;7.572;2023-07-13T11:31:20;4.28;;;1.85;;
45887;SDS011;31595;51.418;7.572;2023-07-13T11:33:52;3.42;;;1.48;;
45887;SDS011;31595;51.418;7.572;2023-07-13T11:36:21;5.75;;;2.00;;
45887;SDS011;31595;51.418;7.572;2023-07-13T11:38:51;3.88;;;1.58;;
45887;SDS011;31595;51.418;7.572;2023-07-13T11:41:23;5.57;;;1.90;;
45887;SDS011;31595;51.418;7.572;2023-07-13T11:46:20;4.90;;;1.60;;
45887;SDS011;31595;51.418;7.572;2023-07-13T11:48:46;3.70;;;1.75;;
45887;SDS011;31595;51.418;7.572;2023-07-13T11:51:17;2.83;;;1.38;;
45887;SDS011;31595;51.418;7.572;2023-07-13T11:53:46;3.25;;;1.40;;
45887;SDS011;31595;51.418;7.572;2023-07-13T11:56:13;4.90;;;1.40;;
45887;SDS011;31595;51.418;7.572;2023-07-13T11:58:40;5.45;;;2.00;;
45887;SDS011;31595;51.418;7.572;2023-07-13T12:01:10;4.05;;;1.65;;
45887;SDS011;31595;51.418;7.572;2023-07-13T12:03:43;4.95;;;1.88;;
45887;SDS011;31595;51.418;7.572;2023-07-13T12:06:19;3.55;;;1.65;;
45887;SDS011;31595;51.418;7.572;2023-07-13T12:08:47;8.50;;;1.70;;
45887;SDS011;31595;51.418;7.572;2023-07-13T12:11:15;3.95;;;1.63;;
45887;SDS011;31595;51.418;7.572;2023-07-13T12:13:43;4.45;;;1.45;;
45887;SDS011;31595;51.418;7.572;2023-07-13T12:16:14;2.63;;;1.33;;
45887;SDS011;31595;51.418;7.572;2023-07-13T12:18:43;4.53;;;1.40;;
45887;SDS011;31595;51.418;7.572;2023-07-13T12:21:16;2.55;;;1.50;;
45887;SDS011;31595;51.418;7.572;2023-07-13T12:23:44;3.78;;;1.58;;
45887;SDS011;31595;51.418;7.572;2023-07-13T12:26:11;6.10;;;1.50;;
45887;SDS011;31595;51.418;7.572;2023-07-13T12:28:39;3.92;;;1.75;;
45887;SDS011;31595;51.418;7.572;2023-07-13T12:31:18;3.88;;;1.48;;
45887;SDS011;31595;51.418;7.572;2023-07-13T12:33:55;4.45;;;1.60;;
45887;SDS011;31595;51.418;7.572;2023-07-13T12:36:22;2.95;;;1.50;;
45887;SDS011;31595;51.418;7.572;2023-07-13T12:38:49;3.78;;;1.30;;
45887;SDS011;31595;51.418;7.572;2023-07-13T12:41:16;5.15;;;1.38;;
45887;SDS011;31595;51.418;7.572;2023-07-13T12:43:44;3.37;;;1.37;;
45887;SDS011;31595;51.418;7.572;2023-07-13T12:46:16;2.65;;;1.55;;
45887;SDS011;31595;51.418;7.572;2023-07-13T12:48:43;7.18;;;1.75;;
45887;SDS011;31595;51.418;7.572;2023-07-13T12:51:12;3.42;;;1.50;;
45887;SDS011;31595;51.418;7.572;2023-07-13T12:53:41;3.38;;;1.50;;
45887;SDS011;31595;51.418;7.572;2023-07-13T12:58:36;2.63;;;1.63;;
45887;SDS011;31595;51.418;7.572;2023-07-13T13:01:03;5.53;;;1.52;;
45887;SDS011;31595;51.418;7.572;2023-07-13T13:03:31;4.38;;;1.42;;
45887;SDS011;31595;51.418;7.572;2023-07-13T13:05:59;2.95;;;1.40;;
45887;SDS011;31595;51.418;7.572;2023-07-13T13:08:32;2.75;;;1.48;;
45887;SDS011;31595;51.418;7.572;2023-07-13T13:10:59;3.70;;;1.50;;
45887;SDS011;31595;51.418;7.572;2023-07-13T13:13:25;4.75;;;1.73;;
45887;SDS011;31595;51.418;7.572;2023-07-13T13:15:52;3.45;;;1.52;;
45887;SDS011;31595;51.418;7.572;2023-07-13T13:18:20;5.30;;;1.60;;
45887;SDS011;31595;51.418;7.572;2023-07-13T13:20:47;5.00;;;1.60;;
45887;SDS011;31595;51.418;7.572;2023-07-13T13:23:14;3.72;;;1.80;;
45887;SDS011;31595;51.418;7.572;2023-07-13T13:25:44;3.45;;;1.63;;
45887;SDS011;31595;51.418;7.572;2023-07-13T13:28:13;4.20;;;1.70;;
45887;SDS011;31595;51.418;7.572;2023-07-13T13:30:40;3.17;;;1.40;;
45887;SDS011;31595;51.418;7.572;2023-07-13T13:33:08;4.55;;;1.63;;
45887;SDS011;31595;51.418;7.572;2023-07-13T13:35:35;3.75;;;1.50;;
45887;SDS011;31595;51.418;7.572;2023-07-13T13:38:04;4.70;;;1.45;;
45887;SDS011;31595;51.418;7.572;2023-07-13T13:40:35;6.63;;;1.98;;
45887;SDS011;31595;51.418;7.572;2023-07-13T13:43:04;4.00;;;1.92;;
45887;SDS011;31595;51.418;7.572;2023-07-13T13:45:31;3.70;;;1.55;;
45887;SDS011;31595;51.418;7.572;2023-07-13T13:47:58;3.90;;;1.50;;
45887;SDS011;31595;51.418;7.572;2023-07-13T13:50:24;4.22;;;1.70;;
45887;SDS011;31595;51.418;7.572;2023-07-13T13:52:51;4.90;;;1.70;;
45887;SDS011;31595;51.418;7.572;2023-07-13T13:55:19;3.50;;;1.90;;
45887;SDS011;31595;51.418;7.572;2023-07-13T13:57:46;3.77;;;1.47;;
45887;SDS011;31595;51.418;7.572;2023-07-13T14:00:15;7.35;;;1.95;;
45887;SDS011;31595;51.418;7.572;2023-07-13T14:02:43;3.85;;;2.03;;
45887;SDS011;31595;51.418;7.572;2023-07-13T14:05:13;5.15;;;1.70;;
45887;SDS011;31595;51.418;7.572;2023-07-13T14:07:40;3.65;;;1.80;;
45887;SDS011;31595;51.418;7.572;2023-07-13T14:10:10;4.18;;;2.13;;
45887;SDS011;31595;51.418;7.572;2023-07-13T14:12:38;5.10;;;2.00;;
45887;SDS011;31595;51.418;7.572;2023-07-13T14:15:05;3.88;;;1.90;;
45887;SDS011;31595;51.418;7.572;2023-07-13T14:17:34;5.60;;;2.38;;
45887;SDS011;31595;51.418;7.572;2023-07-13T14:20:00;5.77;;;2.07;;
45887;SDS011;31595;51.418;7.572;2023-07-13T14:22:30;5.88;;;1.90;;
45887;SDS011;31595;51.418;7.572;2023-07-13T14:24:56;5.28;;;1.88;;
45887;SDS011;31595;51.418;7.572;2023-07-13T14:27:24;5.45;;;1.90;;
45887;SDS011;31595;51.418;7.572;2023-07-13T14:29:51;4.75;;;1.90;;
45887;SDS011;31595;51.418;7.572;2023-07-13T14:32:18;4.97;;;1.90;;
45887;SDS011;31595;51.418;7.572;2023-07-13T14:34:46;4.70;;;2.00;;
45887;SDS011;31595;51.418;7.572;2023-07-13T14:37:13;4.00;;;2.10;;
45887;SDS011;31595;51.418;7.572;2023-07-13T14:39:42;5.28;;;1.98;;
45887;SDS011;31595;51.418;7.572;2023-07-13T14:42:10;4.75;;;1.90;;
45887;SDS011;31595;51.418;7.572;2023-07-13T14:44:38;4.30;;;1.90;;
45887;SDS011;31595;51.418;7.572;2023-07-13T14:47:06;3.35;;;1.77;;
45887;SDS011;31595;51.418;7.572;2023-07-13T14:49:33;4.45;;;1.92;;
45887;SDS011;31595;51.418;7.572;2023-07-13T14:52:03;4.30;;;2.20;;
45887;SDS011;31595;51.418;7.572;2023-07-13T14:54:32;3.92;;;2.00;;
45887;SDS011;31595;51.418;7.572;2023-07-13T14:56:59;4.07;;;2.00;;
45887;SDS011;31595;51.418;7.572;2023-07-13T14:59:26;5.55;;;1.98;;
45887;SDS011;31595;51.418;7.572;2023-07-13T15:01:53;4.35;;;2.00;;
45887;SDS011;31595;51.418;7.572;2023-07-13T15:04:20;4.95;;;1.90;;
45887;SDS011;31595;51.418;7.572;2023-07-13T15:06:54;2.80;;;1.65;;
45887;SDS011;31595;51.418;7.572;2023-07-13T15:09:23;3.85;;;2.03;;
45887;SDS011;31595;51.418;7.572;2023-07-13T15:11:51;3.63;;;2.45;;
45887;SDS011;31595;51.418;7.572;2023-07-13T15:14:18;4.28;;;1.80;;
45887;SDS011;31595;51.418;7.572;2023-07-13T15:16:46;5.10;;;2.20;;
45887;SDS011;31595;51.418;7.572;2023-07-13T15:19:13;4.15;;;2.20;;